Terminal Aerodrome Forecast
Issued by NWS

Home | Current Version | Previous Version | Graphics & Text | Print | Product List | Glossary On
Versions: 1 2 3 4 5 6 7 8 9 10 11 12 13 14 15 16 17 18 19 20
000
FTUS43 KLSX 210520
TAFSUS
TAF
KSUS 210520Z 2106/2206 VRB04KT 6SM BR FEW250
     FM210800 18006KT 6SM BR FEW250 WS020/22035KT
     FM211400 19007KT P6SM FEW250
     FM220100 18004KT P6SM BKN080=

USA.gov is the U.S. government's official web portal to all federal, state and local government web resources and services.